Time;durP1;ratioP1;P1;durP2;ratioP2;P2;SDS_P1;SDS_P2;PMS_P1;PMS_P2;Temp;Humidity;BMP_temperature;BMP_pressure;BME280_temperature;BME280_humidity;BME280_pressure;Samples;Min_cycle;Max_cycle;Signal;HPM_P1;HPM_P2
2022/09/20 02:20:20;;;;;;;;;;;;;;;;;;;;;
2022/09/20 04:02:29;;;;;;;;;;;;;;;;;;;;;
2022/09/20 05:09:13;;;;;;;7.80;1.95;;;13.80;94.70;;;;;;2973985;23;21471;31
2022/09/20 05:12:51;;;;;;;6.53;1.70;;;13.80;94.70;;;;;;4884002;29;20109;-93
2022/09/20 05:19:19;;;;;;;4.53;2.20;;;13.80;94.80;;;;;;4855120;29;20032;-91
2022/09/20 05:22:56;;;;;;;;;;;;;;;;;;;;;
2022/09/20 05:25:47;;;;;;;8.10;2.00;;;13.70;94.80;;;;;;4847776;29;20128;-94
2022/09/20 05:28:52;;;;;;;5.03;1.70;;;13.80;94.90;;;;;;4879537;29;20033;-93
2022/09/20 05:31:36;;;;;;;3.33;1.33;;;13.80;94.90;;;;;;4885177;29;20064;-94
2022/09/20 05:34:16;;;;;;;4.38;1.40;;;13.80;94.90;;;;;;4885434;29;20033;-92
2022/09/20 05:37:17;;;;;;;3.97;1.77;;;13.80;94.90;;;;;;4885182;29;20036;-93
2022/09/20 05:40:38;;;;;;;3.30;1.25;;;13.80;94.90;;;;;;4885753;29;20367;-90
2022/09/20 05:43:32;;;;;;;3.60;1.95;;;13.80;94.90;;;;;;4854595;29;20041;-93
2022/09/20 05:46:12;;;;;;;4.40;3.00;;;13.80;94.90;;;;;;4884451;29;20203;-91
2022/09/20 05:48:54;;;;;;;5.30;2.92;;;13.80;94.90;;;;;;4883968;29;20033;-87
2022/09/20 05:51:44;;;;;;;6.13;3.30;;;13.80;94.90;;;;;;4883925;29;20029;-92
2022/09/20 05:54:43;;;;;;;5.75;2.10;;;13.80;95.00;;;;;;4885398;29;20040;-91
2022/09/20 05:57:32;;;;;;;2.78;1.70;;;13.80;94.90;;;;;;4896073;29;20021;-92
2022/09/20 06:00:10;;;;;;;3.55;1.80;;;13.80;94.90;;;;;;4904468;29;20045;-91
2022/09/20 06:03:12;;;;;;;4.22;1.90;;;13.80;94.90;;;;;;4904492;29;20088;-92
2022/09/20 06:06:19;;;;;;;4.00;1.85;;;13.80;94.80;;;;;;4904086;29;20026;-93
2022/09/20 06:09:13;;;;;;;5.32;2.70;;;13.80;94.80;;;;;;4885317;29;20033;-94
2022/09/20 06:12:22;;;;;;;7.55;2.70;;;13.80;94.80;;;;;;4884862;29;20105;-93
2022/09/20 06:14:59;;;;;;;6.07;2.58;;;13.80;94.90;;;;;;4885614;29;20032;-91
2022/09/20 06:18:00;;;;;;;;;;;;;;;;;;;;;
2022/09/20 06:20:46;;;;;;;5.15;2.08;;;13.80;94.90;;;;;;4886898;29;20116;-95
2022/09/20 06:23:13;;;;;;;4.18;2.15;;;13.80;94.90;;;;;;4881690;29;20069;-94
2022/09/20 06:25:58;;;;;;;4.78;2.13;;;13.70;95.00;;;;;;4885400;29;20147;-93
2022/09/20 06:28:57;;;;;;;3.88;2.10;;;13.80;95.00;;;;;;4869161;29;20037;-90
2022/09/20 06:31:23;;;;;;;4.80;2.00;;;13.80;95.00;;;;;;4885010;29;20032;-94
2022/09/20 06:33:59;;;;;;;5.32;2.05;;;13.80;95.00;;;;;;4887443;29;20084;-92
2022/09/20 06:42:36;;;;;;;4.97;2.15;;;13.90;95.20;;;;;;4885815;29;20480;-92
2022/09/20 06:45:02;;;;;;;4.78;2.30;;;13.90;95.30;;;;;;4884191;29;20033;-92
2022/09/20 06:47:37;;;;;;;5.78;1.98;;;14.00;95.30;;;;;;4884955;29;20560;-94
2022/09/20 06:50:05;;;;;;;3.35;1.85;;;14.00;95.30;;;;;;4884903;29;20025;-93
2022/09/20 06:52:44;;;;;;;5.97;2.30;;;14.00;95.40;;;;;;4884360;29;20123;-92
2022/09/20 06:55:20;;;;;;;5.50;2.33;;;14.10;95.40;;;;;;4883852;29;20029;-93
2022/09/20 06:57:51;;;;;;;6.53;2.13;;;14.10;95.40;;;;;;4883827;29;20033;-92
2022/09/20 07:00:29;;;;;;;7.30;2.30;;;14.10;95.40;;;;;;4883281;29;20490;-93
2022/09/20 07:03:08;;;;;;;;;;;;;;;;;;;;;
2022/09/20 07:05:42;;;;;;;6.43;2.28;;;14.20;95.40;;;;;;4885102;29;20093;-92
2022/09/20 07:08:11;;;;;;;4.68;2.25;;;14.30;95.40;;;;;;4868342;29;20071;-93
2022/09/20 07:10:44;;;;;;;5.72;2.50;;;14.30;95.30;;;;;;4883619;29;20053;-92
2022/09/20 07:13:20;;;;;;;4.28;2.10;;;14.30;95.30;;;;;;4884476;29;20076;-93
2022/09/20 07:16:09;;;;;;;5.50;1.90;;;14.30;95.30;;;;;;4885115;29;20033;-93
2022/09/20 07:19:15;;;;;;;4.93;2.03;;;14.30;95.30;;;;;;4885550;29;20116;-94
2022/09/20 07:21:41;;;;;;;6.15;2.53;;;14.30;95.40;;;;;;4873017;29;20033;-93
2022/09/20 07:24:49;;;;;;;6.63;2.65;;;14.20;95.40;;;;;;4885163;29;20043;-93
2022/09/20 07:27:17;;;;;;;5.60;1.90;;;14.20;95.40;;;;;;4885859;29;20053;-90
2022/09/20 07:29:46;;;;;;;5.05;1.70;;;14.10;95.40;;;;;;4886413;29;20029;-93
2022/09/20 07:32:16;;;;;;;6.78;1.73;;;14.10;95.30;;;;;;4886560;29;20029;-92
2022/09/20 07:35:05;;;;;;;;;;;;;;;;;;;;;
2022/09/20 07:40:40;;;;;;;5.75;1.25;;;14.10;95.20;;;;;;4902388;29;20032;-94
2022/09/20 07:43:14;;;;;;;2.70;1.25;;;14.20;95.30;;;;;;5124884;23;20053;-92
2022/09/20 07:48:41;;;;;;;7.35;1.42;;;14.40;95.30;;;;;;5056513;23;20072;-94
2022/09/20 07:51:28;;;;;;;;;;;;;;;;;;;;;
2022/09/20 07:54:10;;;;;;;3.65;1.35;;;14.60;95.30;;;;;;4903224;29;20557;-95
2022/09/20 07:56:37;;;;;;;3.38;1.30;;;14.60;95.30;;;;;;4885289;29;20069;-92
2022/09/20 07:59:09;;;;;;;3.65;1.67;;;14.70;95.40;;;;;;4871060;29;20067;-91
2022/09/20 08:01:38;;;;;;;3.67;1.30;;;14.70;95.30;;;;;;4903036;29;20053;-93
2022/09/20 08:04:08;;;;;;;4.10;1.42;;;14.80;95.20;;;;;;4982667;23;20118;-94
2022/09/20 08:06:46;;;;;;;5.40;1.45;;;14.80;95.10;;;;;;4919616;29;20032;-91
2022/09/20 08:09:15;;;;;;;5.25;1.45;;;14.90;95.10;;;;;;4920799;29;20155;-92
2022/09/20 08:11:45;;;;;;;2.60;1.20;;;14.90;95.00;;;;;;4924435;29;20035;-93
2022/09/20 08:14:15;;;;;;;3.60;1.30;;;14.90;95.00;;;;;;4924564;29;20021;-93
2022/09/20 08:16:46;;;;;;;2.60;1.15;;;14.80;95.00;;;;;;4924815;29;20448;-92
2022/09/20 08:19:25;;;;;;;6.10;1.50;;;14.90;95.10;;;;;;4925009;29;20142;-92
2022/09/20 08:21:59;;;;;;;7.10;1.85;;;14.90;95.10;;;;;;4924139;29;20083;-91
2022/09/20 08:24:48;;;;;;;;;;;;;;;;;;;;;
2022/09/20 08:27:25;;;;;;;4.88;1.52;;;15.00;95.10;;;;;;4923970;29;20046;-91
2022/09/20 08:29:56;;;;;;;4.43;1.45;;;15.10;95.00;;;;;;4923454;29;20031;-91
2022/09/20 08:32:34;;;;;;;;;;;15.10;95.00;;;;;;4908403;29;20040;-92
2022/09/20 08:35:17;;;;;;;3.15;1.45;;;15.20;95.00;;;;;;4924978;29;19955;-91
2022/09/20 08:40:47;;;;;;;7.00;1.67;;;15.20;94.90;;;;;;4922091;29;20036;-92
2022/09/20 08:43:14;;;;;;;2.88;1.27;;;15.30;94.80;;;;;;4892971;29;20051;-91
2022/09/20 08:45:42;;;;;;;2.22;0.93;;;15.30;94.80;;;;;;4907830;29;20500;-91
2022/09/20 08:48:17;;;;;;;5.13;1.40;;;15.40;94.90;;;;;;4922061;29;20039;-91
2022/09/20 08:50:51;;;;;;;3.72;1.25;;;15.40;94.60;;;;;;4923038;29;20036;-90
2022/09/20 08:53:17;;;;;;;4.82;1.52;;;15.40;94.30;;;;;;4908194;29;20036;-90
2022/09/20 08:55:51;;;;;;;5.07;1.45;;;15.40;93.90;;;;;;4923462;29;20027;-91
2022/09/20 08:58:18;;;;;;;5.28;1.52;;;15.40;94.00;;;;;;4907403;29;20051;-91
2022/09/20 09:00:45;;;;;;;3.35;1.15;;;15.40;94.20;;;;;;4923226;29;20020;-92
2022/09/20 09:03:22;;;;;;;4.32;1.00;;;15.50;94.00;;;;;;4922885;29;20031;-93
2022/09/20 09:05:57;;;;;;;5.47;1.10;;;15.50;94.20;;;;;;4923551;29;20054;-93
2022/09/20 09:08:48;;;;;;;3.10;0.85;;;15.60;93.80;;;;;;4908171;29;20040;-92
2022/09/20 09:11:17;;;;;;;6.68;1.10;;;15.50;93.50;;;;;;4924126;29;20032;-92
2022/09/20 09:16:56;;;;;;;3.15;0.70;;;15.60;93.10;;;;;;4902466;29;20496;-93
2022/09/20 09:19:34;;;;;;;4.63;1.33;;;15.50;93.10;;;;;;4926014;29;20020;-91
2022/09/20 09:22:10;;;;;;;4.22;0.60;;;15.50;92.70;;;;;;4937527;29;20012;-92
2022/09/20 09:24:58;;;;;;;3.63;0.90;;;15.40;92.40;;;;;;4940342;29;20027;-91
2022/09/20 09:30:48;;;;;;;2.65;1.10;;;15.30;91.90;;;;;;4933396;29;20043;-91
2022/09/20 09:33:30;;;;;;;2.97;0.73;;;15.30;91.70;;;;;;4924782;29;20066;-92
2022/09/20 09:36:22;;;;;;;4.05;0.90;;;15.40;91.70;;;;;;4924067;29;20029;-91
2022/09/20 09:38:49;;;;;;;2.65;0.95;;;15.40;92.00;;;;;;4922229;29;20420;-91
2022/09/20 09:41:28;;;;;;;1.60;0.77;;;15.40;92.20;;;;;;4926065;29;20032;-92
2022/09/20 09:44:26;;;;;;;3.83;0.68;;;15.60;92.50;;;;;;4922610;29;20060;-91
2022/09/20 09:46:55;;;;;;;2.90;0.63;;;15.70;92.50;;;;;;4921267;29;20155;-91
2022/09/20 09:49:35;;;;;;;3.00;0.80;;;15.70;92.50;;;;;;4923311;29;20028;-91
2022/09/20 09:52:31;;;;;;;2.42;0.80;;;15.80;92.30;;;;;;4925387;29;20076;-91
2022/09/20 09:55:08;;;;;;;2.25;1.08;;;15.80;92.30;;;;;;4923013;29;20032;-90
2022/09/20 09:58:11;;;;;;;3.38;0.77;;;15.90;92.40;;;;;;4921993;29;20055;-91
2022/09/20 10:00:45;;;;;;;3.50;0.98;;;16.00;92.20;;;;;;4923083;29;20024;-91
2022/09/20 10:03:23;;;;;;;3.38;1.10;;;16.10;92.30;;;;;;4922223;29;20063;-89
2022/09/20 10:06:20;;;;;;;3.17;1.10;;;16.10;92.40;;;;;;4921541;29;20048;-91
2022/09/20 10:08:51;;;;;;;2.75;0.80;;;16.20;92.30;;;;;;4921512;29;20119;-90
2022/09/20 10:11:48;;;;;;;2.75;1.23;;;16.30;92.30;;;;;;4921513;29;20063;-89
2022/09/20 10:14:38;;;;;;;3.05;0.90;;;16.30;92.10;;;;;;4921189;29;20060;-90
2022/09/20 10:17:26;;;;;;;2.50;0.85;;;16.40;92.10;;;;;;4921189;29;20069;-92
2022/09/20 10:23:40;;;;;;;4.93;1.08;;;16.40;92.10;;;;;;4923422;29;19907;-89
2022/09/20 10:26:43;;;;;;;3.00;0.90;;;16.50;92.30;;;;;;4899390;29;20040;-91
2022/09/20 10:29:42;;;;;;;3.28;1.00;;;16.50;92.30;;;;;;4921639;29;20032;-92
2022/09/20 10:32:45;;;;;;;3.97;0.98;;;16.60;92.20;;;;;;4921210;29;20062;-90
2022/09/20 10:35:51;;;;;;;3.42;0.70;;;16.60;92.10;;;;;;4921368;29;20480;-93
2022/09/20 10:38:55;;;;;;;3.30;0.80;;;16.70;92.10;;;;;;4923100;29;20132;-94
2022/09/20 10:49:14;;;;;;;2.80;0.90;;;16.90;91.60;;;;;;4860522;29;20040;-94
2022/09/20 10:52:35;;;;;;;;;;;;;;;;;;;;;
2022/09/20 10:55:18;;;;;;;3.42;0.75;;;17.00;91.80;;;;;;4869204;29;20120;-94
2022/09/20 10:57:55;;;;;;;1.45;0.50;;;17.10;91.80;;;;;;4866323;29;20506;-92
2022/09/20 11:00:44;;;;;;;1.95;0.73;;;17.10;91.60;;;;;;4925206;29;20052;-94
2022/09/20 11:03:49;;;;;;;2.53;1.17;;;17.10;91.40;;;;;;4921254;29;20024;-90
2022/09/20 11:06:47;;;;;;;3.22;0.77;;;17.10;91.30;;;;;;4922651;29;20068;-92
2022/09/20 11:09:23;;;;;;;2.60;0.55;;;17.10;91.40;;;;;;4882572;29;20068;-91
2022/09/20 11:12:09;;;;;;;2.47;0.85;;;17.20;91.30;;;;;;4935361;29;20048;-91
2022/09/20 11:14:58;;;;;;;2.45;0.82;;;17.20;91.20;;;;;;4940417;29;20023;-93
2022/09/20 11:17:30;;;;;;;2.90;0.82;;;17.20;91.30;;;;;;4940051;29;20023;-92
2022/09/20 11:20:56;;;;;;;3.70;0.95;;;17.30;91.40;;;;;;4930592;29;20086;-90
2022/09/20 11:23:43;;;;;;;2.97;0.75;;;17.30;91.20;;;;;;4913769;29;20036;-91
2022/09/20 11:26:26;;;;;;;4.43;0.95;;;17.30;91.10;;;;;;4936488;29;20059;-91
2022/09/20 11:29:02;;;;;;;2.88;0.60;;;17.40;91.30;;;;;;4927250;29;20081;-92
2022/09/20 11:31:54;;;;;;;2.78;0.90;;;17.40;91.10;;;;;;4921580;29;20016;-93
2022/09/20 11:34:24;;;;;;;;;;;17.40;91.00;;;;;;4921243;29;20031;-95
2022/09/20 11:37:20;;;;;;;2.85;0.90;;;17.40;91.00;;;;;;4920749;29;19918;-91
2022/09/20 11:40:14;;;;;;;3.33;0.77;;;17.40;90.90;;;;;;4919710;29;20036;-91
2022/09/20 11:42:45;;;;;;;2.38;1.08;;;17.40;90.40;;;;;;4920906;29;20024;-92
2022/09/20 11:45:14;;;;;;;3.05;0.95;;;17.40;90.00;;;;;;4922578;29;20107;-94
2022/09/20 11:47:54;;;;;;;2.92;0.80;;;17.40;90.00;;;;;;4921904;29;20118;-94
2022/09/20 11:51:01;;;;;;;3.67;0.80;;;17.50;90.00;;;;;;4921335;29;20025;-94
2022/09/20 11:53:57;;;;;;;2.53;0.90;;;17.50;89.90;;;;;;4923303;29;20117;-95
2022/09/20 11:56:56;;;;;;;2.22;0.80;;;17.50;89.90;;;;;;4923508;29;20397;-94
2022/09/20 11:59:32;;;;;;;3.15;0.90;;;17.60;90.10;;;;;;4923632;29;20043;-93
2022/09/20 12:06:07;;;;;;;;;;;;;;;;;;;;;
2022/09/20 12:09:00;;;;;;;4.38;1.02;;;17.70;90.10;;;;;;4872337;29;20110;-94
2022/09/20 12:11:32;;;;;;;3.60;0.65;;;17.70;90.30;;;;;;4883691;29;20095;-96
2022/09/20 12:14:36;;;;;;;2.53;0.80;;;17.70;90.30;;;;;;4924218;29;20119;-95
2022/09/20 12:17:04;;;;;;;7.05;0.90;;;17.80;90.40;;;;;;4921246;29;20028;-92
2022/09/20 12:19:35;;;;;;;2.72;0.68;;;17.90;90.40;;;;;;4920899;29;20079;-93
2022/09/20 12:22:35;;;;;;;1.50;0.63;;;17.90;90.40;;;;;;4922005;29;20088;-92
2022/09/20 12:25:38;;;;;;;3.75;0.93;;;18.00;90.20;;;;;;4919706;29;20055;-89
2022/09/20 12:28:14;;;;;;;4.55;0.93;;;18.10;90.20;;;;;;4919643;29;20516;-92
2022/09/20 12:30:45;;;;;;;3.28;0.93;;;18.10;89.70;;;;;;4920596;29;20469;-90
2022/09/20 12:33:26;;;;;;;4.47;0.85;;;18.10;89.40;;;;;;4906115;29;20043;-93
2022/09/20 12:36:00;;;;;;;3.45;0.82;;;18.10;88.40;;;;;;4905460;29;20025;-93
2022/09/20 12:38:33;;;;;;;4.65;0.80;;;18.10;88.10;;;;;;4920587;29;20032;-91
2022/09/20 12:41:22;;;;;;;4.88;0.70;;;18.10;87.50;;;;;;4920574;29;20035;-93
2022/09/20 12:44:49;;;;;;;3.15;0.80;;;18.10;87.20;;;;;;4905064;29;20457;-91
2022/09/20 12:47:28;;;;;;;;;;;;;;;;;;;;;
2022/09/20 12:53:06;;;;;;;3.60;0.80;;;18.00;85.20;;;;;;4920945;29;20047;-94
2022/09/20 12:56:11;;;;;;;;;;;;;;;;;;;;;
2022/09/20 13:02:46;;;;;;;3.83;0.77;;;17.90;85.50;;;;;;4934374;29;20050;-91
2022/09/20 13:05:44;;;;;;;2.72;0.57;;;17.90;85.80;;;;;;4941042;29;20040;-89
2022/09/20 13:08:49;;;;;;;2.97;0.70;;;17.90;86.10;;;;;;4917927;29;20040;-94
2022/09/20 13:11:26;;;;;;;2.67;0.80;;;17.90;85.70;;;;;;4941675;29;20035;-92
2022/09/20 13:14:32;;;;;;;;;;;;;;;;;;;;;
2022/09/20 13:17:21;;;;;;;1.65;0.60;;;18.00;86.30;;;;;;4924816;29;20122;-90
2022/09/20 13:19:52;;;;;;;1.73;0.57;;;18.00;85.30;;;;;;4924047;29;20055;-91
2022/09/20 13:22:44;;;;;;;1.02;0.60;;;18.00;85.10;;;;;;4908946;29;20084;-90
2022/09/20 13:25:22;;;;;;;2.33;0.70;;;18.00;85.00;;;;;;4922869;29;20036;-92
2022/09/20 13:28:02;;;;;;;1.95;0.65;;;18.00;84.20;;;;;;4923839;29;20040;-92
2022/09/20 13:30:42;;;;;;;2.35;0.82;;;18.00;83.90;;;;;;4925553;29;20032;-93
2022/09/20 13:33:28;;;;;;;2.45;0.77;;;17.90;81.20;;;;;;4926521;29;20028;-89
2022/09/20 13:35:57;;;;;;;3.67;0.70;;;17.90;81.60;;;;;;4908741;29;20020;-91
2022/09/20 13:38:28;;;;;;;2.03;0.70;;;17.80;81.70;;;;;;4923713;29;20031;-91
2022/09/20 13:41:10;;;;;;;4.53;1.00;;;17.80;81.90;;;;;;4922869;29;20052;-93
2022/09/20 13:43:41;;;;;;;2.13;0.90;;;17.70;81.80;;;;;;4925552;29;20039;-92
2022/09/20 13:46:38;;;;;;;;;;;;;;;;;;;;;
2022/09/20 13:49:23;;;;;;;4.10;1.00;;;17.50;82.70;;;;;;4922848;29;20032;-92
2022/09/20 13:52:15;;;;;;;2.45;0.80;;;17.50;83.10;;;;;;4922051;29;20095;-91
2022/09/20 13:54:41;;;;;;;1.95;0.77;;;17.50;83.20;;;;;;4908758;29;20028;-91
2022/09/20 13:57:22;;;;;;;2.90;0.70;;;17.50;83.20;;;;;;4922459;29;20036;-90
2022/09/20 13:59:56;;;;;;;3.25;0.77;;;17.40;82.60;;;;;;4921978;29;20032;-95
2022/09/20 14:02:58;;;;;;;3.30;0.77;;;17.30;82.80;;;;;;4908685;29;20043;-95
2022/09/20 14:05:48;;;;;;;2.30;0.77;;;17.30;82.70;;;;;;4922466;29;20048;-93
2022/09/20 14:09:14;;;;;;;3.97;0.93;;;17.30;82.70;;;;;;4922322;29;20040;-93
2022/09/20 14:11:42;;;;;;;2.20;0.90;;;17.30;83.00;;;;;;4924474;29;20036;-93
2022/09/20 14:14:14;;;;;;;3.10;0.77;;;17.30;83.30;;;;;;4922506;29;20028;-92
2022/09/20 14:16:48;;;;;;;2.28;0.80;;;17.30;83.10;;;;;;4907141;29;20024;-93
2022/09/20 14:19:28;;;;;;;3.53;0.90;;;17.40;82.80;;;;;;4921513;29;20028;-91
2022/09/20 14:22:23;;;;;;;2.53;0.68;;;17.40;82.40;;;;;;4906571;29;20056;-92
2022/09/20 14:25:15;;;;;;;4.32;0.93;;;17.40;81.90;;;;;;4920276;29;20039;-90
2022/09/20 14:27:41;;;;;;;2.80;0.80;;;17.40;81.50;;;;;;4922405;29;20029;-90
2022/09/20 14:30:38;;;;;;;3.35;0.75;;;17.30;81.80;;;;;;4905057;29;20092;-92
2022/09/20 14:33:44;;;;;;;1.85;0.73;;;17.30;82.20;;;;;;4920523;29;20028;-90
2022/09/20 14:36:21;;;;;;;2.53;0.68;;;17.30;81.60;;;;;;4921371;29;20479;-91
2022/09/20 14:39:15;;;;;;;5.10;1.02;;;17.40;81.80;;;;;;4922262;29;20036;-91
2022/09/20 14:41:55;;;;;;;;;;;;;;;;;;;;;
2022/09/20 14:44:41;;;;;;;2.63;0.60;;;17.50;82.00;;;;;;4924417;29;20120;-93
2022/09/20 14:47:15;;;;;;;4.70;0.90;;;17.60;81.90;;;;;;4908206;29;20119;-92
2022/09/20 14:50:30;;;;;;;2.28;0.50;;;17.60;81.30;;;;;;4922269;29;20043;-92
2022/09/20 14:53:35;;;;;;;;;;;;;;;;;;;;;
2022/09/20 14:59:56;;;;;;;2.83;0.88;;;17.90;82.20;;;;;;4941249;29;20060;-93
2022/09/20 15:05:35;;;;;;;3.70;0.82;;;18.00;81.50;;;;;;4927602;29;20469;-91
2022/09/20 15:08:03;;;;;;;1.73;0.70;;;18.10;82.10;;;;;;4922473;29;20032;-92
2022/09/20 15:10:40;;;;;;;1.60;0.40;;;18.10;83.10;;;;;;4923354;29;20025;-92
2022/09/20 15:13:14;;;;;;;2.17;0.70;;;18.20;82.30;;;;;;4907584;29;20073;-93
2022/09/20 15:16:20;;;;;;;1.90;0.60;;;18.10;80.50;;;;;;4906801;29;20028;-94
2022/09/20 15:18:48;;;;;;;4.57;1.02;;;18.10;79.80;;;;;;4916903;29;20490;-94
2022/09/20 15:21:33;;;;;;;2.38;0.80;;;18.00;78.70;;;;;;4905427;29;20387;-93
2022/09/20 15:24:04;;;;;;;5.63;1.20;;;17.90;78.60;;;;;;4921542;29;20036;-92
2022/09/20 15:26:31;;;;;;;3.75;0.90;;;17.80;78.90;;;;;;4922144;29;20024;-94
2022/09/20 15:29:03;;;;;;;2.13;0.88;;;17.70;78.70;;;;;;4921591;29;20102;-91
2022/09/20 15:31:39;;;;;;;5.20;1.00;;;17.60;78.60;;;;;;4889747;29;20055;-93
2022/09/20 15:34:05;;;;;;;3.15;0.82;;;17.50;78.70;;;;;;4921331;29;20111;-91
2022/09/20 15:37:00;;;;;;;;;;;;;;;;;;;;;
2022/09/20 15:39:29;;;;;;;3.00;0.70;;;17.40;78.90;;;;;;4922549;29;20096;-92
2022/09/20 15:42:15;;;;;;;3.55;0.95;;;17.40;78.90;;;;;;4922677;29;20032;-92
2022/09/20 15:45:08;;;;;;;2.47;0.70;;;17.40;78.50;;;;;;4921113;29;20027;-92
2022/09/20 15:47:49;;;;;;;2.75;0.80;;;17.50;79.00;;;;;;4897857;29;20079;-91
2022/09/20 15:50:26;;;;;;;5.22;0.80;;;17.40;78.90;;;;;;4921136;29;20034;-92
2022/09/20 15:52:52;;;;;;;4.10;0.80;;;17.40;78.90;;;;;;4921018;29;20039;-92
2022/09/20 15:55:19;;;;;;;2.95;0.75;;;17.40;78.40;;;;;;4905039;29;20029;-94
2022/09/20 15:57:53;;;;;;;2.63;0.80;;;17.40;78.20;;;;;;4920875;29;20036;-91
2022/09/20 16:00:19;;;;;;;3.30;1.00;;;17.30;77.80;;;;;;4921319;29;20024;-93
2022/09/20 16:02:54;;;;;;;1.90;0.80;;;17.30;77.60;;;;;;4921932;29;20028;-93
2022/09/20 16:05:58;;;;;;;3.72;0.95;;;17.20;77.70;;;;;;4919648;29;20048;-94
2022/09/20 16:08:24;;;;;;;2.08;0.70;;;17.20;77.90;;;;;;4920873;29;20389;-95
2022/09/20 16:10:59;;;;;;;1.98;0.60;;;17.20;78.00;;;;;;4921584;29;20084;-94
2022/09/20 16:13:45;;;;;;;3.72;0.80;;;17.20;78.30;;;;;;4921244;29;20032;-94
2022/09/20 16:16:16;;;;;;;1.88;0.70;;;17.20;78.30;;;;;;4920832;29;20032;-93
2022/09/20 16:21:52;;;;;;;3.45;0.70;;;17.20;78.30;;;;;;4923488;29;20096;-90
2022/09/20 16:24:27;;;;;;;1.85;0.52;;;17.20;78.10;;;;;;4924393;29;20060;-91
2022/09/20 16:27:07;;;;;;;3.63;1.00;;;17.20;77.90;;;;;;4925214;29;20031;-93
2022/09/20 16:29:58;;;;;;;4.60;0.85;;;17.20;77.70;;;;;;4924229;29;20052;-92
2022/09/20 16:32:45;;;;;;;3.83;0.98;;;17.20;77.80;;;;;;4923465;29;20036;-93
2022/09/20 16:35:19;;;;;;;3.03;0.85;;;17.30;78.20;;;;;;4935679;29;20029;-93
2022/09/20 16:37:51;;;;;;;3.55;0.80;;;17.30;77.30;;;;;;4934220;29;20034;-93
2022/09/20 16:40:19;;;;;;;1.55;0.82;;;17.20;76.90;;;;;;4933766;29;20101;-92
2022/09/20 16:42:58;;;;;;;;;;;;;;;;;;;;;
2022/09/20 16:45:38;;;;;;;3.78;0.60;;;17.10;77.00;;;;;;4941578;29;20059;-93
2022/09/20 16:48:20;;;;;;;2.03;0.68;;;17.10;77.10;;;;;;4924688;29;20126;-90
2022/09/20 16:50:56;;;;;;;2.55;0.60;;;17.10;77.20;;;;;;4930196;29;20036;-92
2022/09/20 16:53:30;;;;;;;1.38;0.40;;;17.10;77.30;;;;;;4926513;29;20040;-93
2022/09/20 16:55:56;;;;;;;2.00;0.57;;;17.10;77.40;;;;;;4920033;29;20473;-88
2022/09/20 16:58:35;;;;;;;1.92;0.50;;;17.10;77.20;;;;;;4922301;29;20039;-89
2022/09/20 17:01:06;;;;;;;1.30;0.65;;;17.10;76.90;;;;;;4919020;29;20111;-88
2022/09/20 17:03:32;;;;;;;;;;;17.00;77.00;;;;;;4905894;29;20126;-87
2022/09/20 17:06:03;;;;;;;2.47;0.30;;;17.00;77.40;;;;;;4905017;29;19923;-88
2022/09/20 17:11:26;;;;;;;2.22;0.68;;;16.90;77.80;;;;;;4907699;29;20043;-85
2022/09/20 17:13:56;;;;;;;2.13;0.80;;;16.90;78.00;;;;;;4923359;29;20048;-87
2022/09/20 17:16:29;;;;;;;2.38;0.63;;;16.90;78.50;;;;;;4921700;29;20024;-86
2022/09/20 17:19:08;;;;;;;2.05;0.60;;;17.00;79.00;;;;;;4921636;29;20039;-90
2022/09/20 17:21:39;;;;;;;3.40;0.40;;;17.00;79.30;;;;;;4917547;29;20024;-89
2022/09/20 17:24:16;;;;;;;3.63;0.85;;;17.00;79.90;;;;;;4922043;29;20080;-89
2022/09/20 17:26:58;;;;;;;;;;;;;;;;;;;;;
2022/09/20 17:29:46;;;;;;;1.08;0.52;;;17.00;80.50;;;;;;4923202;29;20036;-90
2022/09/20 17:32:39;;;;;;;2.53;0.65;;;17.00;80.80;;;;;;4906820;29;20397;-89
2022/09/20 17:35:14;;;;;;;2.10;0.60;;;17.00;80.90;;;;;;4877516;29;20048;-91
2022/09/20 17:38:03;;;;;;;2.05;0.70;;;16.90;80.90;;;;;;4903827;29;20511;-91
2022/09/20 17:40:42;;;;;;;;;;;;;;;;;;;;;
2022/09/20 17:43:30;;;;;;;3.47;0.90;;;16.90;80.90;;;;;;4904689;29;20039;-90
2022/09/20 17:46:36;;;;;;;3.85;0.80;;;16.90;80.90;;;;;;4904361;29;20043;-90
2022/09/20 17:49:13;;;;;;;3.28;0.95;;;16.80;81.30;;;;;;4897437;29;20044;-90
2022/09/20 17:51:45;;;;;;;3.80;0.70;;;16.80;81.60;;;;;;4903124;29;20064;-90
2022/09/20 17:55:01;;;;;;;1.98;0.77;;;16.70;81.20;;;;;;4921433;29;20024;-88
2022/09/20 17:57:32;;;;;;;2.35;0.82;;;16.70;81.40;;;;;;4924980;29;20044;-89
2022/09/20 17:59:58;;;;;;;3.78;0.70;;;16.60;81.50;;;;;;4905135;29;20036;-89
2022/09/20 18:02:31;;;;;;;3.00;1.08;;;16.60;81.60;;;;;;4915420;29;20104;-89
2022/09/20 18:05:09;;;;;;;1.30;0.70;;;16.60;81.90;;;;;;4902341;29;20068;-90
2022/09/20 18:07:35;;;;;;;1.20;0.70;;;16.50;82.20;;;;;;4902389;29;20036;-88
2022/09/20 18:10:14;;;;;;;3.15;0.93;;;16.50;82.30;;;;;;4902077;29;20399;-89
2022/09/20 18:12:50;;;;;;;2.60;0.70;;;16.40;82.30;;;;;;4902977;29;20039;-89
2022/09/20 18:15:18;;;;;;;2.53;0.90;;;16.40;82.60;;;;;;4901432;29;20031;-88
2022/09/20 18:17:46;;;;;;;2.15;0.80;;;16.30;82.90;;;;;;4901885;29;20047;-89
2022/09/20 18:20:15;;;;;;;2.53;1.00;;;16.20;83.40;;;;;;4902014;29;20108;-90
2022/09/20 18:22:41;;;;;;;4.35;0.70;;;16.10;83.70;;;;;;4886778;29;20059;-89
2022/09/20 18:25:17;;;;;;;;;;;;;;;;;;;;;
2022/09/20 18:27:52;;;;;;;2.15;0.70;;;16.00;84.20;;;;;;4904188;29;20039;-93
2022/09/20 18:30:43;;;;;;;;;;;;;;;;;;;;;
2022/09/20 18:33:09;;;;;;;4.07;0.80;;;15.90;84.60;;;;;;4913427;29;20559;-92
2022/09/20 18:35:40;;;;;;;3.92;0.63;;;15.80;84.60;;;;;;4934610;29;20068;-92
2022/09/20 18:38:15;;;;;;;2.22;0.75;;;15.70;84.70;;;;;;4938061;29;20043;-91
2022/09/20 18:40:44;;;;;;;2.15;0.60;;;15.60;84.90;;;;;;4920802;29;20032;-90
2022/09/20 18:43:12;;;;;;;3.13;0.70;;;15.60;85.20;;;;;;4926269;29;20070;-91
2022/09/20 18:45:41;;;;;;;4.60;0.65;;;15.50;85.40;;;;;;4908972;29;20036;-90
2022/09/20 18:48:23;;;;;;;;;;;;;;;;;;;;;
2022/09/20 18:52:04;;;;;;;4.20;0.70;;;15.30;85.70;;;;;;4910059;29;20147;-90
2022/09/20 18:54:43;;;;;;;2.45;0.77;;;15.30;85.90;;;;;;4829216;29;20046;-90
2022/09/20 18:57:36;;;;;;;1.40;0.80;;;15.20;86.00;;;;;;4845938;29;20100;-92
2022/09/20 19:00:24;;;;;;;1.95;0.85;;;15.20;86.10;;;;;;4901329;29;20217;-91
2022/09/20 19:03:24;;;;;;;2.83;0.98;;;15.10;86.20;;;;;;4886100;29;20044;-91
2022/09/20 19:06:13;;;;;;;2.63;1.00;;;15.00;86.20;;;;;;4858576;29;20049;-92
2022/09/20 19:09:13;;;;;;;4.05;1.00;;;14.90;87.00;;;;;;4854004;29;20182;-92
2022/09/20 19:11:56;;;;;;;2.72;0.90;;;14.90;86.50;;;;;;4867365;29;20068;-93
2022/09/20 19:14:42;;;;;;;4.00;1.00;;;14.80;86.60;;;;;;4867598;29;20045;-94
2022/09/20 19:17:55;;;;;;;;;;;;;;;;;;;;;
2022/09/20 19:20:47;;;;;;;2.38;0.82;;;14.70;87.10;;;;;;4828169;29;20041;-81
2022/09/20 19:23:49;;;;;;;1.40;0.80;;;14.60;87.10;;;;;;4883516;29;20037;-82
2022/09/20 19:26:21;;;;;;;3.20;0.88;;;14.50;87.30;;;;;;4882773;29;20181;-82
2022/09/20 19:28:58;;;;;;;3.30;0.93;;;14.50;87.40;;;;;;4883415;29;20044;-83
2022/09/20 19:31:32;;;;;;;2.08;1.10;;;14.50;87.60;;;;;;4883344;29;20032;-82
2022/09/20 19:34:03;;;;;;;3.10;1.10;;;14.40;87.60;;;;;;4883430;29;20024;-82
2022/09/20 19:36:53;;;;;;;2.58;1.20;;;14.40;87.80;;;;;;4882850;29;20024;-82
2022/09/20 19:39:40;;;;;;;2.15;1.10;;;14.40;88.00;;;;;;4883235;29;20099;-82
2022/09/20 19:42:27;;;;;;;3.10;1.10;;;14.30;88.00;;;;;;4882591;29;20477;-84
2022/09/20 19:45:13;;;;;;;2.85;1.15;;;14.30;88.20;;;;;;4883253;29;20025;-83
2022/09/20 19:48:00;;;;;;;2.53;1.27;;;14.30;88.40;;;;;;4883022;29;20029;-83
2022/09/20 19:50:32;;;;;;;3.63;1.00;;;14.20;88.60;;;;;;4869448;29;20036;-82
2022/09/20 19:53:03;;;;;;;2.00;1.15;;;14.10;88.70;;;;;;4883142;29;20378;-82
2022/09/20 19:55:36;;;;;;;5.40;1.13;;;14.10;88.70;;;;;;4868325;29;20057;-82
2022/09/20 19:58:03;;;;;;;3.15;1.10;;;14.00;89.40;;;;;;4868133;29;20048;-82
2022/09/20 20:00:30;;;;;;;2.25;1.42;;;14.00;88.90;;;;;;4851944;29;20037;-83
2022/09/20 20:02:56;;;;;;;2.58;1.40;;;14.00;89.10;;;;;;4867548;29;20033;-81
2022/09/20 20:05:26;;;;;;;2.55;1.05;;;13.90;89.10;;;;;;4866967;29;20063;-82
2022/09/20 20:08:02;;;;;;;2.08;1.20;;;13.90;89.10;;;;;;4872124;29;20033;-81
2022/09/20 20:10:49;;;;;;;3.60;1.25;;;13.90;89.20;;;;;;4902298;29;20033;-82
2022/09/20 20:16:14;;;;;;;3.20;1.10;;;13.80;89.50;;;;;;4925663;29;20024;-82
2022/09/20 20:19:17;;;;;;;3.78;1.20;;;13.80;89.50;;;;;;4924320;29;20044;-82
2022/09/20 20:21:57;;;;;;;2.22;1.02;;;13.70;89.60;;;;;;4925248;29;20024;-82
2022/09/20 20:24:57;;;;;;;4.20;1.42;;;13.70;89.60;;;;;;4908688;29;20038;-82
2022/09/20 20:27:27;;;;;;;3.88;1.70;;;13.60;89.80;;;;;;4865612;29;20048;-82
2022/09/20 20:29:54;;;;;;;7.07;1.63;;;13.60;89.80;;;;;;4902479;29;20025;-82
2022/09/20 20:32:20;;;;;;;3.88;1.95;;;13.60;90.00;;;;;;4903131;29;20350;-81
2022/09/20 20:34:46;;;;;;;2.67;1.45;;;13.50;90.00;;;;;;4901851;29;20116;-82
2022/09/20 20:37:12;;;;;;;4.85;1.65;;;13.50;90.10;;;;;;4886030;29;20121;-83
2022/09/20 20:39:39;;;;;;;4.55;1.40;;;13.50;90.20;;;;;;4885912;29;20032;-82